createdAt,value
2023-04-18T05:03:19.400Z,25.00
2023-04-18T05:04:20.438Z,25.00
2023-04-18T05:05:20.623Z,25.00
2023-04-18T05:06:19.148Z,25.00
2023-04-18T05:07:19.202Z,25.00
2023-04-18T05:08:20.179Z,25.00
2023-04-18T05:09:20.203Z,0.00
2023-04-18T05:10:20.294Z,0.00
2023-04-18T05:11:20.340Z,0.00
2023-04-18T05:12:20.397Z,0.00
2023-04-18T05:13:19.509Z,0.00
2023-04-18T05:14:19.501Z,0.00
2023-04-18T05:15:20.461Z,0.00
2023-04-18T05:16:19.549Z,0.00
2023-04-18T05:17:20.593Z,0.00
2023-04-18T05:18:20.600Z,0.00
2023-04-18T05:19:20.609Z,0.00
2023-04-18T05:20:19.702Z,0.00
2023-04-18T05:22:38.917Z,25.00
2023-04-18T05:23:39.067Z,25.00
2023-04-18T05:24:39.829Z,25.00
2023-04-18T05:25:39.879Z,25.00
2023-04-18T05:26:39.819Z,25.00
2023-04-18T05:27:39.823Z,25.00
2023-04-18T05:28:39.826Z,25.71
2023-04-18T05:29:39.797Z,25.00
2023-04-18T05:30:39.863Z,25.00
2023-04-18T05:31:39.799Z,25.00
2023-04-18T05:32:39.870Z,25.00
2023-04-18T05:33:38.938Z,25.38
2023-04-18T05:34:39.866Z,25.49
2023-04-18T05:35:39.811Z,25.34
2023-04-18T05:36:39.770Z,25.00
2023-04-18T05:37:38.755Z,25.23
2023-04-18T05:38:39.763Z,25.00
2023-04-18T05:39:39.786Z,26.11
2023-04-18T05:40:39.741Z,25.73
2023-04-18T05:41:39.726Z,26.21
2023-04-18T05:42:39.778Z,25.00
2023-04-18T05:43:40.175Z,25.00
2023-04-18T05:44:39.823Z,25.00
2023-04-18T05:45:39.905Z,25.15
2023-04-18T05:46:39.942Z,27.39
2023-04-18T05:47:39.896Z,25.48
2023-04-18T05:48:39.906Z,25.04
2023-04-18T05:49:39.861Z,26.16
2023-04-18T05:50:39.876Z,25.00
2023-04-18T05:51:39.872Z,25.56
2023-04-18T05:52:39.899Z,25.00
2023-04-18T05:53:38.908Z,25.00
2023-04-18T05:54:39.932Z,25.00
2023-04-18T05:55:39.976Z,25.84
2023-04-18T05:56:38.964Z,25.32
2023-04-18T05:57:39.981Z,26.68
2023-04-18T05:58:39.966Z,25.05
2023-04-18T05:59:39.014Z,25.00
2023-04-18T06:00:40.065Z,26.25
2023-04-18T06:01:40.030Z,25.00
2023-04-18T06:02:40.234Z,25.86
2023-04-18T06:03:40.152Z,25.62
2023-04-18T06:04:40.261Z,26.93
2023-04-18T06:05:39.105Z,25.46
2023-04-18T06:13:47.975Z,25.00
2023-04-18T06:14:49.000Z,25.00
2023-04-18T06:15:48.988Z,25.00
2023-04-18T06:16:47.975Z,25.00
2023-04-18T06:17:48.936Z,25.00
2023-04-18T06:18:48.978Z,25.00
2023-04-18T06:19:48.922Z,25.00
2023-04-18T06:20:48.910Z,25.00
2023-04-18T06:21:48.987Z,26.35
2023-04-18T06:22:48.047Z,27.58
2023-04-18T06:23:49.068Z,25.00
2023-04-18T06:24:49.100Z,25.00
2023-04-18T06:25:48.115Z,26.29
2023-04-18T06:26:49.185Z,28.15
2023-04-18T06:33:04.928Z,25.00
2023-04-18T06:34:04.914Z,25.00
2023-04-18T06:35:04.759Z,25.00
2023-04-18T06:36:05.802Z,25.00
2023-04-18T06:37:05.743Z,25.00
2023-04-18T06:38:05.740Z,25.83
2023-04-18T06:39:05.745Z,25.00
2023-04-18T06:40:04.725Z,25.94
2023-04-18T06:41:05.720Z,26.62
2023-04-18T06:42:04.718Z,29.48
2023-04-18T06:43:05.706Z,27.31
2023-04-18T06:44:05.706Z,25.00
2023-04-18T06:45:04.681Z,25.82
2023-04-18T06:46:04.727Z,26.67
2023-04-18T06:47:04.686Z,26.89
2023-04-18T06:48:04.732Z,25.22
2023-04-18T06:49:05.840Z,25.00
2023-04-18T06:50:04.666Z,28.58
2023-04-18T06:51:05.666Z,28.40
2023-04-18T06:52:05.661Z,32.04
2023-04-18T06:53:04.672Z,26.56
2023-04-18T06:54:05.659Z,28.94
2023-04-18T06:55:05.628Z,30.73
2023-04-18T06:56:05.982Z,26.42
2023-04-18T06:57:05.629Z,26.18
2023-04-18T06:58:04.617Z,27.79
2023-04-18T06:59:05.641Z,25.99
2023-04-18T07:00:05.646Z,27.89
2023-04-18T07:01:05.749Z,27.94
2023-04-18T07:02:05.627Z,27.73
2023-04-18T07:03:06.996Z,29.03
2023-04-18T07:05:23.931Z,25.00
2023-04-18T07:06:24.895Z,25.00
2023-04-18T07:07:24.707Z,25.00
2023-04-18T07:08:23.715Z,25.00
2023-04-18T07:09:23.730Z,25.00
2023-04-18T07:10:23.676Z,25.12
2023-04-18T07:11:24.682Z,25.66
2023-04-18T07:12:24.667Z,27.76
2023-04-18T07:13:24.657Z,26.56
2023-04-18T07:14:24.685Z,29.47
2023-04-18T07:15:24.671Z,27.68
2023-04-18T07:16:24.656Z,31.24
2023-04-18T07:17:24.665Z,33.63
2023-04-18T07:19:43.986Z,25.00
2023-04-18T07:20:45.090Z,25.00
2023-04-18T07:21:55.701Z,25.00
2023-04-18T07:22:45.244Z,25.00
2023-04-18T07:23:46.112Z,25.00
2023-04-18T07:24:45.421Z,25.00
2023-04-18T07:25:45.366Z,25.00
2023-04-18T07:26:45.368Z,25.00
2023-04-18T07:27:45.517Z,26.07
2023-04-18T07:28:45.474Z,25.00
2023-04-18T07:29:44.540Z,28.52
2023-04-18T07:30:45.619Z,28.86
2023-04-18T07:31:45.609Z,31.23
2023-04-18T07:32:45.679Z,33.25
2023-04-18T07:33:45.711Z,33.61
2023-04-18T07:34:45.824Z,41.54
2023-04-18T07:35:45.983Z,44.37
2023-04-18T07:36:45.873Z,50.64
2023-04-18T07:37:45.858Z,58.27
2023-04-18T07:38:45.988Z,58.41
2023-04-18T07:39:45.930Z,62.01
2023-04-18T07:40:45.994Z,64.20
2023-04-18T07:41:45.965Z,68.91
2023-04-18T07:42:46.048Z,67.48
2023-04-18T07:43:46.037Z,73.62
2023-04-18T07:44:45.162Z,80.79
2023-04-18T07:45:45.068Z,88.88
2023-04-18T07:46:46.175Z,94.30
2023-04-18T07:47:46.155Z,99.50
2023-04-18T07:48:46.136Z,90.21
2023-04-18T07:49:45.173Z,92.27
2023-04-18T07:50:45.568Z,93.50
2023-04-18T07:51:46.288Z,93.83
2023-04-18T07:52:46.363Z,92.32
2023-04-18T07:53:45.340Z,85.75
2023-04-18T07:54:46.410Z,79.05
2023-04-18T07:55:45.417Z,77.09
2023-04-18T07:56:46.366Z,77.10
2023-04-18T07:57:46.457Z,76.37
2023-04-18T07:58:46.451Z,76.34
2023-04-18T07:59:46.447Z,70.06
2023-04-18T08:00:45.470Z,63.70
2023-04-18T08:01:45.485Z,67.01
2023-04-18T08:02:46.676Z,60.10
2023-04-18T08:03:46.565Z,56.63
2023-04-18T08:04:45.634Z,58.99
2023-04-18T08:05:45.624Z,55.18
2023-04-18T08:06:45.519Z,51.56
2023-04-18T08:07:46.620Z,51.66
2023-04-18T08:08:45.637Z,51.37
2023-04-18T08:10:01.598Z,45.98
2023-04-18T08:11:04.681Z,25.00
2023-04-18T08:12:04.689Z,25.00
2023-04-18T08:13:05.749Z,25.00
2023-04-18T08:14:05.659Z,25.00
2023-04-18T08:15:05.669Z,25.00
2023-04-18T08:16:05.761Z,26.97
2023-04-18T08:17:05.705Z,26.21
2023-04-18T08:18:05.863Z,27.98
2023-04-18T08:19:04.670Z,30.88
2023-04-18T08:20:05.638Z,26.65
2023-04-18T08:21:05.630Z,28.09
2023-04-18T08:22:04.605Z,27.72
2023-04-18T08:23:09.576Z,27.11
2023-04-18T08:24:05.642Z,27.51
2023-04-18T08:25:05.721Z,27.75
2023-04-18T08:26:04.577Z,28.04
2023-04-18T08:27:04.609Z,27.41
2023-04-18T08:28:04.601Z,25.12
2023-04-18T08:29:05.562Z,25.00
2023-04-18T08:30:05.604Z,25.00
2023-04-18T08:31:04.560Z,26.64
2023-04-18T08:32:05.634Z,27.29
2023-04-18T08:33:05.575Z,28.63
2023-04-18T08:34:05.562Z,25.00
2023-04-18T08:35:05.599Z,27.36
2023-04-18T08:36:05.664Z,27.66
2023-04-18T08:37:05.533Z,31.21
2023-04-18T08:38:04.612Z,29.15
2023-04-18T08:39:04.596Z,30.85
2023-04-18T08:40:05.587Z,27.65
2023-04-18T08:41:04.495Z,31.40
2023-04-18T08:42:05.517Z,27.41
2023-04-18T08:43:05.629Z,26.37
2023-04-18T08:44:05.493Z,27.41
2023-04-18T08:45:04.492Z,26.99
2023-04-18T08:46:05.644Z,30.33
2023-04-18T08:47:05.455Z,27.35
2023-04-18T08:48:05.541Z,25.00
2023-04-18T08:49:05.482Z,25.31
2023-04-18T08:50:05.443Z,28.06
2023-04-18T08:51:05.489Z,25.50
2023-04-18T08:52:05.434Z,28.59
2023-04-18T08:53:05.410Z,28.12
2023-04-18T08:54:05.400Z,27.26
2023-04-18T08:55:04.403Z,27.48
2023-04-18T08:56:05.667Z,29.25
2023-04-18T08:57:05.464Z,25.41
2023-04-18T08:58:04.434Z,26.03
2023-04-18T08:59:05.447Z,25.00
2023-04-18T09:00:04.365Z,28.67
2023-04-18T09:01:04.386Z,26.94
2023-04-18T09:02:05.452Z,29.36
2023-04-18T09:03:04.616Z,32.90
2023-04-18T09:04:05.374Z,28.66
2023-04-18T09:05:04.380Z,30.49
2023-04-18T09:06:05.336Z,28.19
2023-04-18T09:07:05.323Z,29.31
2023-04-18T09:08:05.312Z,26.21
2023-04-18T09:09:04.326Z,28.95
2023-04-18T09:10:05.330Z,30.94
2023-04-18T09:11:05.330Z,28.57
2023-04-18T09:12:05.350Z,27.83
2023-04-18T09:13:05.358Z,28.29
2023-04-18T09:14:05.421Z,27.75
2023-04-18T09:15:04.466Z,26.75
2023-04-18T09:16:04.535Z,28.06
2023-04-18T09:17:04.668Z,28.78
2023-04-18T09:18:05.755Z,26.63
2023-04-18T09:19:06.844Z,28.53
2023-04-18T09:20:05.779Z,28.36
2023-04-18T09:21:04.837Z,27.43
2023-04-18T09:22:05.907Z,29.27
2023-04-18T09:23:05.900Z,27.25
2023-04-18T09:24:05.927Z,30.04
2023-04-18T09:25:06.061Z,29.55
2023-04-18T09:26:05.989Z,27.59
2023-04-18T09:27:05.000Z,29.12
2023-04-18T09:28:06.109Z,27.08
2023-04-18T09:29:05.967Z,30.21
2023-04-18T09:30:05.968Z,26.35
2023-04-18T09:31:04.981Z,28.31
2023-04-18T09:32:06.045Z,28.83
2023-04-18T09:33:05.039Z,28.54
2023-04-18T09:34:05.989Z,25.00
2023-04-18T09:35:06.000Z,29.58
2023-04-18T09:36:05.000Z,27.20
2023-04-18T09:37:06.127Z,25.92
2023-04-18T09:38:05.017Z,26.82
2023-04-18T09:39:05.130Z,28.56
2023-04-18T09:40:06.058Z,25.00
2023-04-18T09:41:06.061Z,29.87
2023-04-18T09:42:06.125Z,29.71
2023-04-18T09:43:06.124Z,25.00
2023-04-18T09:44:05.346Z,26.04
2023-04-18T09:45:06.243Z,28.39
2023-04-18T09:46:05.186Z,26.72
2023-04-18T09:47:06.472Z,30.46
2023-04-18T09:48:06.263Z,30.63
2023-04-18T09:49:05.281Z,29.23
2023-04-18T09:50:05.290Z,29.32
2023-04-18T09:51:05.313Z,31.18
2023-04-18T09:52:05.436Z,30.24
2023-04-18T09:53:05.401Z,31.96
2023-04-18T09:54:05.430Z,29.60
2023-04-18T09:55:06.463Z,30.56
2023-04-18T09:56:05.471Z,31.70
2023-04-18T09:57:06.510Z,31.91
2023-04-18T09:58:05.523Z,32.91
2023-04-18T09:59:05.585Z,30.66
2023-04-18T10:00:05.682Z,27.96
2023-04-18T10:01:06.745Z,30.39
2023-04-18T10:02:05.737Z,29.43
2023-04-18T10:03:05.806Z,29.64
2023-04-18T10:04:07.014Z,31.61
2023-04-18T10:05:06.923Z,27.92
2023-04-18T10:06:06.844Z,31.99
2023-04-18T10:07:06.879Z,29.15
2023-04-18T10:08:05.949Z,30.08
2023-04-18T10:09:06.916Z,30.56
2023-04-18T10:10:05.961Z,29.84
2023-04-18T10:11:07.066Z,30.54
2023-04-18T10:12:07.046Z,30.28
2023-04-18T10:13:06.125Z,30.17
2023-04-18T10:14:07.169Z,31.08
2023-04-18T10:15:07.169Z,30.76
2023-04-18T10:16:06.446Z,30.94
2023-04-18T10:17:06.340Z,31.02
2023-04-18T10:18:06.575Z,32.19
2023-04-18T10:19:07.360Z,28.74
2023-04-18T10:20:06.477Z,29.90
2023-04-18T10:21:06.441Z,29.26
2023-04-18T10:22:07.476Z,28.75
2023-04-18T10:23:07.522Z,28.82
2023-04-18T10:24:06.595Z,29.09
2023-04-18T10:25:06.606Z,29.69
2023-04-18T10:26:06.628Z,28.08
2023-04-18T10:27:06.732Z,29.44
2023-04-18T10:28:07.750Z,26.16
2023-04-18T10:29:07.765Z,27.49
2023-04-18T10:30:09.106Z,27.26
2023-04-18T10:31:06.822Z,28.25
2023-04-18T10:32:07.930Z,27.04
2023-04-18T10:33:12.710Z,28.44
2023-04-18T10:34:07.894Z,28.74
2023-04-18T10:35:07.864Z,29.34
2023-04-18T10:36:07.867Z,29.66
2023-04-18T10:37:07.903Z,30.39
2023-04-18T10:38:06.923Z,31.97
2023-04-18T10:39:06.837Z,31.26
2023-04-18T10:40:06.841Z,28.68
2023-04-18T10:41:07.821Z,29.70
2023-04-18T10:42:06.925Z,29.44
2023-04-18T10:43:07.826Z,29.63
2023-04-18T10:44:08.634Z,29.69
2023-04-18T10:45:06.868Z,31.01
2023-04-18T10:46:14.375Z,32.51
2023-04-18T10:47:07.959Z,32.69
2023-04-18T10:48:07.890Z,26.63
2023-04-18T10:49:07.789Z,16.67
2023-04-18T10:50:07.777Z,15.01
2023-04-18T10:51:06.761Z,12.49
2023-04-18T10:52:07.027Z,30.41
2023-04-18T10:53:06.768Z,25.00
2023-04-18T10:54:07.858Z,34.95
2023-04-18T10:55:06.986Z,36.46
2023-04-18T10:56:07.724Z,34.80
2023-04-18T10:57:06.756Z,36.48
2023-04-18T10:58:07.775Z,33.59
2023-04-18T10:59:07.709Z,36.60
2023-04-18T11:02:20.750Z,25.00
2023-04-18T11:04:37.262Z,25.00
2023-04-18T11:05:38.060Z,25.00
2023-04-18T11:06:38.124Z,25.00
2023-04-18T11:07:37.069Z,25.00
2023-04-18T11:08:37.058Z,25.00
2023-04-18T11:09:38.020Z,25.64
2023-04-18T11:10:38.027Z,25.00
2023-04-18T11:11:38.050Z,25.05
2023-04-18T11:12:37.001Z,28.78
2023-04-18T11:13:38.049Z,25.77
2023-04-18T11:14:38.145Z,26.52
2023-04-18T11:16:56.194Z,25.00
2023-04-18T11:17:57.199Z,25.00
2023-04-18T11:18:57.144Z,25.00
2023-04-18T11:19:57.252Z,25.00
2023-04-18T11:20:57.103Z,25.00
2023-04-18T11:21:57.104Z,25.00
2023-04-18T11:22:57.086Z,25.00
2023-04-18T11:23:56.088Z,27.75
2023-04-18T11:24:57.093Z,25.12
2023-04-18T11:25:56.062Z,26.98
2023-04-18T11:26:57.082Z,29.77
2023-04-18T11:27:57.183Z,29.22
2023-04-18T11:28:57.041Z,27.06
2023-04-18T11:29:57.094Z,26.43
2023-04-18T11:30:56.030Z,28.56
2023-04-18T11:31:58.462Z,28.22
2023-04-18T11:32:56.292Z,31.92
2023-04-18T11:33:56.241Z,31.12
2023-04-18T11:34:57.253Z,31.57
2023-04-18T11:35:56.276Z,30.35
2023-04-18T11:36:56.389Z,29.02
2023-04-18T11:37:57.288Z,27.78
2023-04-18T11:38:57.314Z,25.00
2023-04-18T11:39:57.321Z,26.33
2023-04-18T11:40:56.368Z,27.66
2023-04-18T11:41:57.422Z,33.94
2023-04-18T11:42:56.457Z,40.05
2023-04-18T11:43:56.461Z,41.56
2023-04-18T11:44:57.484Z,42.31
2023-04-18T11:45:56.614Z,48.85
2023-04-18T11:46:56.573Z,47.31
2023-04-18T11:47:57.604Z,53.77
2023-04-18T11:48:57.615Z,52.97
2023-04-18T11:49:57.286Z,50.65
2023-04-18T11:50:56.699Z,53.42
2023-04-18T11:51:57.774Z,53.64
2023-04-18T11:52:56.808Z,57.23
2023-04-18T11:53:57.851Z,54.25
2023-04-18T11:54:57.891Z,55.02
2023-04-18T11:55:57.960Z,55.92
2023-04-18T11:56:57.003Z,52.92
2023-04-18T11:57:58.082Z,53.31
2023-04-18T11:58:58.126Z,54.79
2023-04-18T11:59:58.204Z,54.17
2023-04-18T12:00:57.290Z,52.94
2023-04-18T12:01:58.910Z,52.42
2023-04-18T12:02:57.420Z,53.81
2023-04-18T12:03:57.749Z,56.69
2023-04-18T12:04:57.762Z,55.84
2023-04-18T12:05:58.661Z,55.62
2023-04-18T12:06:57.482Z,53.38
2023-04-18T12:07:57.646Z,56.95
2023-04-18T12:08:58.572Z,56.21
2023-04-18T12:09:58.606Z,55.27
2023-04-18T12:10:58.668Z,55.25
2023-04-18T12:11:58.718Z,56.39
2023-04-18T12:12:57.779Z,53.99
2023-04-18T12:13:58.832Z,55.45
2023-04-18T12:14:58.857Z,53.03
2023-04-18T12:15:58.948Z,54.32
2023-04-18T12:16:57.907Z,57.20
2023-04-18T12:17:59.033Z,53.70
2023-04-18T12:18:59.031Z,53.13
2023-04-18T12:19:58.133Z,55.81
2023-04-18T12:20:59.107Z,52.87
2023-04-18T12:21:58.179Z,50.41
2023-04-18T12:22:59.296Z,54.76
2023-04-18T12:23:59.269Z,51.10
2023-04-18T12:24:59.587Z,53.71
2023-04-18T12:25:58.326Z,55.70
2023-04-18T12:26:59.382Z,54.37
2023-04-18T12:27:59.416Z,55.37
2023-04-18T12:28:59.487Z,51.18
2023-04-18T12:29:59.525Z,56.12
2023-04-18T12:30:59.687Z,57.55
2023-04-18T12:31:59.668Z,56.88
2023-04-18T12:32:59.693Z,52.75
2023-04-18T12:33:59.680Z,55.05
2023-04-18T12:34:58.740Z,56.22
2023-04-18T12:35:59.796Z,54.98
2023-04-18T12:36:59.795Z,55.07
2023-04-18T12:37:58.811Z,56.82
2023-04-18T12:38:58.884Z,53.96
2023-04-18T12:39:59.910Z,54.92
2023-04-18T12:40:59.975Z,56.13
2023-04-18T12:42:00.008Z,55.05
2023-04-18T12:43:02.173Z,54.94
2023-04-18T12:43:59.041Z,55.07
2023-04-18T12:45:00.053Z,55.38
2023-04-18T12:46:00.066Z,55.15
2023-04-18T12:47:00.066Z,55.46
2023-04-18T12:48:00.088Z,52.38
2023-04-18T12:49:00.009Z,53.94
2023-04-18T12:50:00.010Z,52.29
2023-04-18T12:50:58.982Z,55.57
2023-04-18T12:51:59.981Z,47.65
2023-04-18T12:53:00.000Z,23.29
2023-04-18T12:53:58.975Z,4.90
2023-04-18T12:54:59.991Z,0.00
2023-04-18T12:55:59.963Z,26.80
2023-04-18T12:56:59.947Z,21.29
2023-04-18T12:57:58.997Z,33.35
2023-04-18T12:58:59.936Z,22.67
2023-04-18T13:00:00.012Z,28.70
2023-04-18T13:00:59.037Z,14.65
2023-04-18T13:01:58.984Z,16.03
2023-04-18T13:02:59.046Z,31.75
2023-04-18T13:04:10.649Z,28.01
2023-04-18T13:05:00.014Z,28.55
2023-04-18T13:05:58.908Z,37.93
2023-04-18T13:06:59.898Z,58.04
2023-04-18T13:08:12.848Z,86.18
2023-04-18T13:08:59.920Z,31.95
2023-04-18T13:09:59.941Z,46.06
2023-04-18T13:10:59.900Z,72.29
2023-04-18T13:11:59.875Z,106.32
2023-04-18T13:12:58.919Z,152.65
2023-04-18T13:13:58.931Z,165.04
2023-04-18T13:14:58.856Z,159.35
2023-04-18T13:15:59.896Z,162.57
2023-04-18T13:16:59.891Z,165.40
2023-04-18T13:17:59.886Z,169.06
2023-04-18T13:18:58.828Z,169.01
2023-04-18T13:19:58.831Z,167.79
2023-04-18T13:20:58.828Z,172.12
2023-04-18T13:21:58.910Z,168.72
2023-04-18T13:22:59.792Z,169.92
2023-04-18T13:23:58.783Z,171.39
2023-04-18T13:24:58.784Z,170.75
2023-04-18T13:25:58.788Z,166.83
2023-04-18T13:27:01.582Z,171.11
2023-04-18T13:27:59.757Z,170.06
2023-04-18T13:28:59.765Z,174.12
2023-04-18T13:29:58.794Z,170.06
2023-04-18T13:30:59.749Z,171.71
2023-04-18T13:31:58.759Z,172.41
2023-04-18T13:32:58.762Z,172.71
2023-04-18T13:33:59.732Z,165.77
2023-04-18T13:34:59.716Z,168.28
2023-04-18T13:35:58.710Z,172.11
2023-04-18T13:36:59.691Z,171.09
2023-04-18T13:37:59.682Z,167.83
2023-04-18T13:38:59.690Z,169.13
2023-04-18T13:39:58.689Z,168.44
2023-04-18T13:41:11.405Z,167.05
2023-04-18T13:41:59.660Z,167.41
2023-04-18T13:42:59.690Z,169.28
2023-04-18T13:43:59.654Z,170.49
2023-04-18T13:44:58.654Z,173.94
2023-04-18T13:45:58.660Z,173.57
2023-04-18T13:46:59.635Z,168.71
2023-04-18T13:47:59.679Z,168.93
2023-04-18T13:48:59.604Z,175.29
2023-04-18T13:49:58.612Z,179.92
2023-04-18T13:50:58.604Z,177.14
2023-04-18T13:51:58.595Z,177.52
2023-04-18T13:52:59.610Z,179.04
2023-04-18T13:53:58.576Z,177.67
2023-04-18T13:54:59.590Z,176.66
2023-04-18T13:55:59.565Z,179.45
2023-04-18T13:56:59.565Z,180.14
2023-04-18T13:57:58.571Z,179.02
2023-04-18T13:58:59.580Z,181.80
2023-04-18T13:59:58.534Z,180.22
2023-04-18T14:00:59.528Z,180.61
2023-04-18T14:01:59.645Z,182.01
2023-04-18T14:02:58.629Z,181.41
2023-04-18T14:03:59.633Z,181.01
2023-04-18T14:04:58.833Z,181.46
2023-04-18T14:05:59.524Z,181.75
2023-04-18T14:06:59.503Z,181.21
2023-04-18T14:07:58.498Z,183.23
2023-04-18T14:08:58.483Z,182.28
2023-04-18T14:09:59.502Z,181.80
2023-04-18T14:10:58.495Z,180.20
2023-04-18T14:11:58.486Z,181.85
2023-04-18T14:12:59.480Z,180.56
2023-04-18T14:13:59.449Z,180.52
2023-04-18T14:14:58.480Z,180.05
2023-04-18T14:15:58.530Z,179.57
2023-04-18T14:16:59.450Z,180.07
2023-04-18T14:17:59.506Z,177.59
2023-04-18T14:18:59.431Z,181.26
2023-04-18T14:19:59.437Z,182.17
2023-04-18T14:20:59.410Z,181.70
2023-04-18T14:21:59.399Z,180.60
2023-04-18T14:22:59.438Z,181.29
2023-04-18T14:23:59.389Z,180.43
2023-04-18T14:24:59.385Z,178.99
2023-04-18T14:25:59.414Z,179.66
2023-04-18T14:26:58.397Z,179.88
2023-04-18T14:27:58.416Z,180.20
2023-04-18T14:28:59.426Z,179.19
2023-04-18T14:29:58.421Z,177.22
2023-04-18T14:30:58.445Z,179.06
2023-04-18T14:31:59.456Z,176.71
2023-04-18T14:32:58.543Z,178.12
2023-04-18T14:33:59.521Z,179.49
2023-04-18T14:34:59.577Z,179.34
2023-04-18T14:35:59.600Z,178.31
2023-04-18T14:36:59.622Z,178.73
2023-04-18T14:37:58.647Z,180.04
2023-04-18T14:38:59.652Z,178.66
2023-04-18T14:39:59.666Z,177.08
2023-04-18T14:40:59.682Z,176.27
2023-04-18T14:41:59.695Z,177.65
2023-04-18T14:42:58.675Z,176.30
2023-04-18T14:43:59.680Z,175.89
2023-04-18T14:44:58.685Z,176.04
2023-04-18T14:45:59.899Z,175.71
2023-04-18T14:46:59.780Z,177.38
2023-04-18T14:47:58.756Z,176.19
2023-04-18T14:48:58.734Z,175.38
2023-04-18T14:49:58.741Z,176.95
2023-04-18T14:50:58.728Z,176.94
2023-04-18T14:51:59.750Z,176.23
2023-04-18T14:52:58.770Z,175.88
2023-04-18T14:53:59.766Z,175.24
2023-04-18T14:54:59.780Z,175.30
2023-04-18T14:55:59.807Z,175.42
2023-04-18T14:56:58.809Z,174.44
2023-04-18T14:57:59.818Z,174.34
2023-04-18T14:58:59.821Z,176.67
2023-04-18T14:59:58.801Z,176.62
2023-04-18T15:00:59.821Z,175.25
2023-04-18T15:01:58.849Z,175.07
2023-04-18T15:03:00.114Z,174.79
2023-04-18T15:03:59.999Z,175.15
2023-04-18T15:04:59.983Z,176.61
2023-04-18T15:05:58.843Z,172.70
2023-04-18T15:06:59.837Z,174.78
2023-04-18T15:07:59.842Z,175.32
2023-04-18T15:08:58.853Z,174.02
2023-04-18T15:09:59.883Z,174.04
2023-04-18T15:10:59.879Z,175.15
2023-04-18T15:11:59.887Z,172.53
2023-04-18T15:12:58.910Z,175.15
2023-04-18T15:13:59.915Z,172.44
2023-04-18T15:14:59.922Z,173.00
2023-04-18T15:15:59.976Z,174.04
2023-04-18T15:16:58.929Z,172.11
2023-04-18T15:17:59.989Z,172.26
2023-04-18T15:18:58.930Z,171.29
2023-04-18T15:19:59.915Z,171.91
2023-04-18T15:20:59.914Z,171.53
2023-04-18T15:21:59.896Z,170.65
2023-04-18T15:22:59.902Z,172.30
2023-04-18T15:23:59.923Z,172.68
2023-04-18T15:24:59.910Z,171.65
2023-04-18T15:25:59.931Z,172.64
2023-04-18T15:26:59.938Z,171.87
2023-04-18T15:27:58.953Z,171.60
2023-04-18T15:28:59.961Z,171.49
2023-04-18T15:29:59.005Z,170.29
